Nearby METAR Reports

KLNK - Lincoln, Nebraska, USA
Distance from station: WNW 8mi, 13km
Updated: Mon, 19-Apr-2021 10:12am CDT
Overcast
Overcast
 Wind from N
Wind: N 21 mph , 33 km/h
Temperature: 34°F , 1°C
Wind Chill: 22°F , -6°C
Dew Point: 23°F , -5°C
Humidity: 65%
Barometer: 30.14 inHg , 1020.7 hPa
Clouds: Overcast
Visibility: 10 miles , 16 km
Cloud details: Mostly Cloudy 2100 ft
Overcast 4600 ft
2021/04/19 15:12 KLNK 191512Z 35018KT 10SM BKN021 OVC046 01/M05 A3014 RMK AO2 T00111050
KAHQ - Wahoo, Nebraska, USA
Distance from station: N 31mi, 49km
Updated: Mon, 19-Apr-2021 10:35am CDT
Light snow, Overcast
Light snow, Overcast
 Wind from NNW
Wind: NNW 22 mph , 35 km/h, Gust: 28 mph , 44 km/h
Temperature: 32°F , 0°C
Wind Chill: 19°F , -7°C
Dew Point: 27°F , -3°C
Humidity: 80%
Barometer: 30.14 inHg , 1020.7 hPa
Summary: Light Snow
Clouds: Overcast
Visibility: 7 miles , 11 km
Cloud details: Partly Cloudy 1500 ft
Partly Cloudy 2100 ft
Overcast 6000 ft
2021/04/19 15:35 KAHQ 191535Z AUTO 34019G24KT 7SM -SN SCT015 SCT021 OVC060 00/M03 A3014 RMK AO2 T00001031
 
KBIE - Beatrice Municip, Nebraska, USA
Distance from station: S 36mi, 57km
Updated: Mon, 19-Apr-2021 10:35am CDT
Overcast
Overcast
 Wind from N
Wind: N 21 mph , 33 km/h, Gust: 24 mph , 39 km/h
Temperature: 37°F , 3°C
Wind Chill: 26°F , -3°C
Dew Point: 27°F , -3°C
Humidity: 65%
Barometer: 30.12 inHg , 1020 hPa
Clouds: Overcast
Visibility: 10 miles , 16 km
Cloud details: Mostly Cloudy 2200 ft
Mostly Cloudy 2600 ft
Overcast 4500 ft
2021/04/19 15:35 KBIE 191535Z AUTO 01018G21KT 10SM BKN022 BKN026 OVC045 03/M03 A3012 RMK AO2 T00291027
KMLE - Omaha/Millard, Nebraska, USA
Distance from station: NE 39mi, 63km
Updated: Mon, 19-Apr-2021 10:35am CDT
Light snow, Overcast
Light snow, Overcast
 Wind from N
Wind: N 12 mph , 19 km/h
Temperature: 34°F , 1°C
Wind Chill: 25°F , -4°C
Dew Point: 27°F , -3°C
Humidity: 75%
Barometer: 30.13 inHg , 1020.3 hPa
Summary: Light Snow
Clouds: Overcast
Visibility: 10 miles , 16 km
Cloud details: Overcast 1800 ft
2021/04/19 15:35 KMLE 191535Z AUTO 35010KT 10SM -SN OVC018 01/M03 A3013 RMK AO2 T00101033
 
KPMV - Plattsmouth Muni, Nebraska, USA
Distance from station: ENE 39mi, 63km
Updated: Mon, 19-Apr-2021 10:35am CDT
Overcast
Overcast
 Wind from N
Wind: N 9 mph , 15 km/h, Gust: 24 mph , 39 km/h
Temperature: 34°F , 1°C
Wind Chill: 27°F , -3°C
Dew Point: 25°F , -4°C
Humidity: 70%
Barometer: 30.11 inHg , 1019.6 hPa
Clouds: Overcast
Visibility: 10 miles , 16 km
Cloud details: Partly Cloudy 2200 ft
Overcast 5000 ft
2021/04/19 15:35 KPMV 191535Z AUTO 35008G21KT 10SM SCT022 OVC050 01/M04 A3011 RMK AO2 T00051041
KAFK - Nebraska City, Nebraska, USA
Distance from station: ESE 43mi, 69km
Updated: Mon, 19-Apr-2021 10:35am CDT
Overcast
Overcast
 Wind from NNE
Wind: NNE 18 mph , 30 km/h, Gust: 28 mph , 44 km/h
Barometer: 30.11 inHg , 1019.6 hPa
Clouds: Overcast
Visibility: 10 miles , 16 km
Cloud details: Partly Cloudy 2500 ft
Overcast 4200 ft
2021/04/19 15:35 KAFK 191535Z AUTO 02016G24KT 10SM SCT025 OVC042 A3011 RMK AO2
 
KOFF - Offutt Afb/Belle, Nebraska, USA
Distance from station: ENE 44mi, 70km
Updated: Mon, 19-Apr-2021 10:11am CDT
Overcast
Overcast
 Wind from N
Wind: N 12 mph , 19 km/h, Gust: 21 mph , 33 km/h
Clouds: Overcast
Visibility: 10 miles , 16 km
Cloud details: Overcast 1800 ft
2021/04/19 15:11 KOFF 191511Z AUTO 35010G18KT 10SM OVC018 M M RMK AO2 OVC V BKN SLPNO RVRNO PWINO PNO FZRANO TSNO VISNO RWY30 CHINO RWY30 $
KFET - Fremont Muni Arp, Nebraska, USA
Distance from station: N 46mi, 74km
Updated: Mon, 19-Apr-2021 10:35am CDT
Light snow, Overcast
Light snow, Overcast
 Wind from NNW
Wind: NNW 20 mph , 31 km/h
Temperature: 32°F , 0°C
Wind Chill: 20°F , -7°C
Dew Point: 27°F , -3°C
Humidity: 80%
Barometer: 30.15 inHg , 1021 hPa
Summary: Light Snow
Clouds: Overcast
Visibility: 7 miles , 11 km
Cloud details: Mostly Cloudy 1400 ft
Overcast 1800 ft
2021/04/19 15:35 KFET 191535Z AUTO 33017KT 7SM -SN BKN014 OVC018 00/M03 A3015 RMK AO2 T10021031
 
KBTA - Blair Muni, Nebraska, USA
Distance from station: NNE 51mi, 82km
Updated: Mon, 19-Apr-2021 10:35am CDT
Overcast
Overcast
 Wind from NNW
Wind: NNW 16 mph , 26 km/h
Temperature: 30°F , -1°C
Wind Chill: 19°F , -7°C
Dew Point: 19°F , -7°C
Humidity: 64%
Barometer: 30.11 inHg , 1019.6 hPa
Clouds: Overcast
Visibility: 10 miles , 16 km
Cloud details: Mostly Cloudy 1200 ft
Mostly Cloudy 1800 ft
Overcast 2300 ft
2021/04/19 15:35 KBTA 191535Z AUTO 34014KT 10SM BKN012 BKN018 OVC023 M01/M07 A3011 RMK AO2 T10111074
KJYR - York, Nebraska, USA
Distance from station: W 52mi, 84km
Updated: Mon, 19-Apr-2021 10:35am CDT
Overcast
Overcast
 Wind from N
Wind: N 28 mph , 44 km/h, Gust: 35 mph , 56 km/h
Temperature: 30°F , -1°C
Wind Chill: 15°F , -9°C
Dew Point: 23°F , -5°C
Humidity: 75%
Barometer: 30.14 inHg , 1020.7 hPa
Clouds: Overcast
Visibility: 10 miles , 16 km
Cloud details: Few Clouds 1900 ft
Overcast 5500 ft
2021/04/19 15:35 KJYR 191535Z AUTO 01024G30KT 10SM FEW019 OVC055 M01/M05 A3014 RMK AO2
 
KOMA - Omaha/Eppley, Nebraska, USA
Distance from station: NE 53mi, 85km
Updated: Mon, 19-Apr-2021 10:31am CDT
Light snow, Overcast
Light snow, Overcast
 Wind from N
Wind: N 20 mph , 31 km/h
Temperature: 30°F , -1°C
Wind Chill: 17°F , -8°C
Dew Point: 27°F , -3°C
Humidity: 86%
Barometer: 30.12 inHg , 1020 hPa
Summary: Light Snow
Clouds: Overcast
Visibility: 3 miles , 5 km
Cloud details: Partly Cloudy 1400 ft
Mostly Cloudy 2000 ft
Overcast 6000 ft
2021/04/19 15:31 KOMA 191531Z 35017KT 3SM -SN SCT014 BKN020 OVC060 M01/M03 A3012 RMK AO2 PK WND 36026/1454 P0000 T10061033
KOLU - Columbus Muni, Nebraska, USA
Distance from station: NW 58mi, 93km
Updated: Mon, 19-Apr-2021 9:56am CDT
Light snow, Overcast
Light snow, Overcast
 Wind from N
Wind: N 21 mph , 33 km/h
Temperature: 28°F , -2°C
Wind Chill: 14°F , -10°C
Dew Point: 25°F , -4°C
Humidity: 86%
Barometer: 30.17 inHg , 1021.7 hPa
Summary: Light Snow
Clouds: Overcast
Visibility: 8 miles , 13 km
Cloud details: Overcast 1500 ft
2021/04/19 14:56 KOLU 191456Z AUTO 36018KT 8SM -SN OVC015 M02/M04 A3017 RMK AO2 SLP227 P0000 60000 T10221044 51017 FZRANO